sensor_id;sensor_type;location;lat;lon;timestamp;P1;durP1;ratioP1;P2;durP2;ratioP2
65971;SDS011;52726;48.852;9.152;2023-03-03T00:02:22;23.95;;;11.15;;
65971;SDS011;52726;48.852;9.152;2023-03-03T00:04:48;33.30;;;12.32;;
65971;SDS011;52726;48.852;9.152;2023-03-03T00:07:13;20.90;;;9.82;;
65971;SDS011;52726;48.852;9.152;2023-03-03T00:14:47;18.30;;;8.93;;
65971;SDS011;52726;48.852;9.152;2023-03-03T00:17:20;22.83;;;11.50;;
65971;SDS011;52726;48.852;9.152;2023-03-03T00:19:45;28.33;;;11.40;;
65971;SDS011;52726;48.852;9.152;2023-03-03T00:22:30;28.23;;;10.68;;
65971;SDS011;52726;48.852;9.152;2023-03-03T00:25:20;28.77;;;11.43;;
65971;SDS011;52726;48.852;9.152;2023-03-03T00:28:06;19.60;;;9.98;;
65971;SDS011;52726;48.852;9.152;2023-03-03T00:30:44;23.73;;;11.45;;
65971;SDS011;52726;48.852;9.152;2023-03-03T00:33:18;25.10;;;9.98;;
65971;SDS011;52726;48.852;9.152;2023-03-03T00:38:47;27.95;;;12.32;;
65971;SDS011;52726;48.852;9.152;2023-03-03T00:41:22;25.55;;;11.90;;
65971;SDS011;52726;48.852;9.152;2023-03-03T00:43:49;25.20;;;11.25;;
65971;SDS011;52726;48.852;9.152;2023-03-03T00:46:19;23.17;;;12.23;;
65971;SDS011;52726;48.852;9.152;2023-03-03T00:48:47;27.40;;;10.88;;
65971;SDS011;52726;48.852;9.152;2023-03-03T00:53:56;30.48;;;12.98;;
65971;SDS011;52726;48.852;9.152;2023-03-03T00:56:23;26.27;;;11.88;;
65971;SDS011;52726;48.852;9.152;2023-03-03T00:58:50;25.48;;;12.20;;
65971;SDS011;52726;48.852;9.152;2023-03-03T01:01:16;32.03;;;13.52;;
65971;SDS011;52726;48.852;9.152;2023-03-03T01:03:42;31.40;;;12.88;;
65971;SDS011;52726;48.852;9.152;2023-03-03T01:06:08;28.30;;;12.73;;
65971;SDS011;52726;48.852;9.152;2023-03-03T01:08:34;29.15;;;11.98;;
65971;SDS011;52726;48.852;9.152;2023-03-03T01:11:03;27.00;;;11.60;;
65971;SDS011;52726;48.852;9.152;2023-03-03T01:13:49;29.45;;;11.57;;
65971;SDS011;52726;48.852;9.152;2023-03-03T01:16:16;29.67;;;13.23;;
65971;SDS011;52726;48.852;9.152;2023-03-03T01:18:42;25.85;;;11.27;;
65971;SDS011;52726;48.852;9.152;2023-03-03T01:21:08;28.73;;;12.85;;
65971;SDS011;52726;48.852;9.152;2023-03-03T01:23:37;30.10;;;13.35;;
65971;SDS011;52726;48.852;9.152;2023-03-03T01:26:05;26.83;;;13.05;;
65971;SDS011;52726;48.852;9.152;2023-03-03T01:28:42;25.40;;;11.02;;
65971;SDS011;52726;48.852;9.152;2023-03-03T01:31:46;22.27;;;12.23;;
65971;SDS011;52726;48.852;9.152;2023-03-03T01:34:20;24.42;;;10.82;;
65971;SDS011;52726;48.852;9.152;2023-03-03T01:36:48;24.52;;;11.82;;
65971;SDS011;52726;48.852;9.152;2023-03-03T01:39:13;31.83;;;12.93;;
65971;SDS011;52726;48.852;9.152;2023-03-03T01:41:39;29.38;;;12.05;;
65971;SDS011;52726;48.852;9.152;2023-03-03T01:44:04;27.45;;;13.20;;
65971;SDS011;52726;48.852;9.152;2023-03-03T01:46:32;33.78;;;14.20;;
65971;SDS011;52726;48.852;9.152;2023-03-03T01:49:05;29.27;;;14.05;;
65971;SDS011;52726;48.852;9.152;2023-03-03T01:51:36;28.77;;;11.60;;
65971;SDS011;52726;48.852;9.152;2023-03-03T01:54:10;37.47;;;16.50;;
65971;SDS011;52726;48.852;9.152;2023-03-03T01:56:42;32.45;;;13.60;;
65971;SDS011;52726;48.852;9.152;2023-03-03T01:59:19;33.38;;;15.60;;
65971;SDS011;52726;48.852;9.152;2023-03-03T02:01:47;29.27;;;14.23;;
65971;SDS011;52726;48.852;9.152;2023-03-03T02:04:13;30.52;;;13.80;;
65971;SDS011;52726;48.852;9.152;2023-03-03T02:06:40;37.00;;;16.08;;
65971;SDS011;52726;48.852;9.152;2023-03-03T02:11:41;28.70;;;14.15;;
65971;SDS011;52726;48.852;9.152;2023-03-03T02:14:12;27.45;;;13.32;;
65971;SDS011;52726;48.852;9.152;2023-03-03T02:16:37;31.50;;;14.80;;
65971;SDS011;52726;48.852;9.152;2023-03-03T02:19:04;32.55;;;12.57;;
65971;SDS011;52726;48.852;9.152;2023-03-03T02:21:34;25.08;;;13.55;;
65971;SDS011;52726;48.852;9.152;2023-03-03T02:26:46;40.00;;;15.70;;
65971;SDS011;52726;48.852;9.152;2023-03-03T02:29:12;23.40;;;11.73;;
65971;SDS011;52726;48.852;9.152;2023-03-03T02:31:38;35.95;;;16.05;;
65971;SDS011;52726;48.852;9.152;2023-03-03T02:34:04;27.60;;;14.55;;
65971;SDS011;52726;48.852;9.152;2023-03-03T02:36:31;23.88;;;12.55;;
65971;SDS011;52726;48.852;9.152;2023-03-03T02:44:26;27.35;;;12.85;;
65971;SDS011;52726;48.852;9.152;2023-03-03T02:46:54;26.35;;;13.43;;
65971;SDS011;52726;48.852;9.152;2023-03-03T02:49:21;28.73;;;13.00;;
65971;SDS011;52726;48.852;9.152;2023-03-03T02:51:51;21.13;;;11.95;;
65971;SDS011;52726;48.852;9.152;2023-03-03T02:54:17;33.95;;;14.32;;
65971;SDS011;52726;48.852;9.152;2023-03-03T02:56:45;29.45;;;13.88;;
65971;SDS011;52726;48.852;9.152;2023-03-03T02:59:11;29.17;;;12.18;;
65971;SDS011;52726;48.852;9.152;2023-03-03T03:01:37;32.65;;;13.15;;
65971;SDS011;52726;48.852;9.152;2023-03-03T03:04:06;21.48;;;11.38;;
65971;SDS011;52726;48.852;9.152;2023-03-03T03:06:36;30.98;;;13.20;;
65971;SDS011;52726;48.852;9.152;2023-03-03T03:09:02;23.70;;;11.45;;
65971;SDS011;52726;48.852;9.152;2023-03-03T03:11:29;28.63;;;13.93;;
65971;SDS011;52726;48.852;9.152;2023-03-03T03:13:54;29.75;;;13.48;;
65971;SDS011;52726;48.852;9.152;2023-03-03T03:16:20;28.15;;;13.73;;
65971;SDS011;52726;48.852;9.152;2023-03-03T03:18:45;30.83;;;14.13;;
65971;SDS011;52726;48.852;9.152;2023-03-03T03:21:11;39.88;;;14.85;;
65971;SDS011;52726;48.852;9.152;2023-03-03T03:23:37;28.77;;;12.90;;
65971;SDS011;52726;48.852;9.152;2023-03-03T03:26:04;31.33;;;15.43;;
65971;SDS011;52726;48.852;9.152;2023-03-03T03:28:30;29.98;;;14.23;;
65971;SDS011;52726;48.852;9.152;2023-03-03T03:30:56;34.28;;;14.32;;
65971;SDS011;52726;48.852;9.152;2023-03-03T03:33:22;27.05;;;11.95;;
65971;SDS011;52726;48.852;9.152;2023-03-03T03:35:47;33.67;;;12.52;;
65971;SDS011;52726;48.852;9.152;2023-03-03T03:38:14;24.35;;;12.68;;
65971;SDS011;52726;48.852;9.152;2023-03-03T03:40:40;27.85;;;13.75;;
65971;SDS011;52726;48.852;9.152;2023-03-03T03:43:06;28.83;;;12.63;;
65971;SDS011;52726;48.852;9.152;2023-03-03T03:45:31;29.30;;;13.60;;
65971;SDS011;52726;48.852;9.152;2023-03-03T03:47:57;34.35;;;15.13;;
65971;SDS011;52726;48.852;9.152;2023-03-03T03:50:22;35.00;;;15.43;;
65971;SDS011;52726;48.852;9.152;2023-03-03T03:52:47;32.83;;;14.85;;
65971;SDS011;52726;48.852;9.152;2023-03-03T03:55:13;40.10;;;15.18;;
65971;SDS011;52726;48.852;9.152;2023-03-03T03:57:39;38.25;;;15.13;;
65971;SDS011;52726;48.852;9.152;2023-03-03T04:00:05;29.00;;;13.52;;
65971;SDS011;52726;48.852;9.152;2023-03-03T04:02:32;38.03;;;14.73;;
65971;SDS011;52726;48.852;9.152;2023-03-03T04:04:58;37.20;;;14.48;;
65971;SDS011;52726;48.852;9.152;2023-03-03T04:07:23;33.83;;;13.45;;
65971;SDS011;52726;48.852;9.152;2023-03-03T04:09:49;28.05;;;13.75;;
65971;SDS011;52726;48.852;9.152;2023-03-03T04:12:15;36.67;;;14.73;;
65971;SDS011;52726;48.852;9.152;2023-03-03T04:14:40;32.00;;;14.18;;
65971;SDS011;52726;48.852;9.152;2023-03-03T04:17:05;35.58;;;15.48;;
65971;SDS011;52726;48.852;9.152;2023-03-03T04:19:31;31.85;;;13.93;;
65971;SDS011;52726;48.852;9.152;2023-03-03T04:21:56;24.15;;;12.10;;
65971;SDS011;52726;48.852;9.152;2023-03-03T04:24:21;26.90;;;14.27;;
65971;SDS011;52726;48.852;9.152;2023-03-03T04:26:47;30.65;;;13.85;;
65971;SDS011;52726;48.852;9.152;2023-03-03T04:29:12;26.27;;;13.52;;
65971;SDS011;52726;48.852;9.152;2023-03-03T04:31:37;23.00;;;11.95;;
65971;SDS011;52726;48.852;9.152;2023-03-03T04:34:03;28.20;;;12.45;;
65971;SDS011;52726;48.852;9.152;2023-03-03T04:36:28;35.63;;;16.20;;
65971;SDS011;52726;48.852;9.152;2023-03-03T04:38:54;47.00;;;14.25;;
65971;SDS011;52726;48.852;9.152;2023-03-03T04:41:19;27.63;;;13.35;;
65971;SDS011;52726;48.852;9.152;2023-03-03T04:43:44;24.27;;;11.90;;
65971;SDS011;52726;48.852;9.152;2023-03-03T04:46:10;27.33;;;12.95;;
65971;SDS011;52726;48.852;9.152;2023-03-03T04:48:35;25.80;;;12.15;;
65971;SDS011;52726;48.852;9.152;2023-03-03T04:51:02;27.50;;;12.68;;
65971;SDS011;52726;48.852;9.152;2023-03-03T04:53:28;27.58;;;13.25;;
65971;SDS011;52726;48.852;9.152;2023-03-03T04:55:53;38.50;;;14.50;;
65971;SDS011;52726;48.852;9.152;2023-03-03T04:58:19;32.25;;;13.68;;
65971;SDS011;52726;48.852;9.152;2023-03-03T05:00:45;29.88;;;13.52;;
65971;SDS011;52726;48.852;9.152;2023-03-03T05:03:11;35.15;;;14.70;;
65971;SDS011;52726;48.852;9.152;2023-03-03T05:05:37;32.63;;;14.73;;
65971;SDS011;52726;48.852;9.152;2023-03-03T05:08:04;40.53;;;15.85;;
65971;SDS011;52726;48.852;9.152;2023-03-03T05:10:30;30.52;;;13.60;;
65971;SDS011;52726;48.852;9.152;2023-03-03T05:12:55;33.78;;;14.80;;
65971;SDS011;52726;48.852;9.152;2023-03-03T05:15:20;30.90;;;15.18;;
65971;SDS011;52726;48.852;9.152;2023-03-03T05:17:46;29.60;;;14.43;;
65971;SDS011;52726;48.852;9.152;2023-03-03T05:20:11;26.83;;;13.00;;
65971;SDS011;52726;48.852;9.152;2023-03-03T05:22:37;31.45;;;14.38;;
65971;SDS011;52726;48.852;9.152;2023-03-03T05:25:03;37.00;;;15.25;;
65971;SDS011;52726;48.852;9.152;2023-03-03T05:27:29;24.92;;;14.02;;
65971;SDS011;52726;48.852;9.152;2023-03-03T05:29:54;37.92;;;14.40;;
65971;SDS011;52726;48.852;9.152;2023-03-03T05:32:19;38.47;;;15.98;;
65971;SDS011;52726;48.852;9.152;2023-03-03T05:34:45;34.25;;;14.85;;
65971;SDS011;52726;48.852;9.152;2023-03-03T05:37:10;32.28;;;12.85;;
65971;SDS011;52726;48.852;9.152;2023-03-03T05:39:36;33.28;;;15.45;;
65971;SDS011;52726;48.852;9.152;2023-03-03T05:42:01;36.22;;;13.75;;
65971;SDS011;52726;48.852;9.152;2023-03-03T05:44:27;33.92;;;13.55;;
65971;SDS011;52726;48.852;9.152;2023-03-03T05:46:52;38.92;;;15.43;;
65971;SDS011;52726;48.852;9.152;2023-03-03T05:49:18;31.30;;;14.07;;
65971;SDS011;52726;48.852;9.152;2023-03-03T05:51:43;39.55;;;15.77;;
65971;SDS011;52726;48.852;9.152;2023-03-03T05:54:08;36.42;;;14.15;;
65971;SDS011;52726;48.852;9.152;2023-03-03T06:03:53;21.58;;;10.90;;
65971;SDS011;52726;48.852;9.152;2023-03-03T06:12:48;23.73;;;12.40;;
65971;SDS011;52726;48.852;9.152;2023-03-03T06:15:14;29.35;;;13.30;;
65971;SDS011;52726;48.852;9.152;2023-03-03T06:17:43;27.05;;;11.52;;
65971;SDS011;52726;48.852;9.152;2023-03-03T06:23:12;29.70;;;12.65;;
65971;SDS011;52726;48.852;9.152;2023-03-03T06:25:56;24.40;;;11.35;;
65971;SDS011;52726;48.852;9.152;2023-03-03T06:31:32;20.05;;;11.07;;
65971;SDS011;52726;48.852;9.152;2023-03-03T06:33:58;30.30;;;13.73;;
65971;SDS011;52726;48.852;9.152;2023-03-03T06:36:23;31.65;;;13.07;;
65971;SDS011;52726;48.852;9.152;2023-03-03T06:38:49;24.55;;;12.75;;
65971;SDS011;52726;48.852;9.152;2023-03-03T06:41:15;20.50;;;11.00;;
65971;SDS011;52726;48.852;9.152;2023-03-03T06:43:40;32.42;;;12.82;;
65971;SDS011;52726;48.852;9.152;2023-03-03T06:46:06;33.95;;;14.07;;
65971;SDS011;52726;48.852;9.152;2023-03-03T06:48:31;24.90;;;11.63;;
65971;SDS011;52726;48.852;9.152;2023-03-03T06:50:58;28.73;;;11.50;;
65971;SDS011;52726;48.852;9.152;2023-03-03T06:53:26;20.40;;;9.82;;
65971;SDS011;52726;48.852;9.152;2023-03-03T06:55:51;21.90;;;10.60;;
65971;SDS011;52726;48.852;9.152;2023-03-03T06:58:20;21.98;;;12.40;;
65971;SDS011;52726;48.852;9.152;2023-03-03T07:03:42;31.55;;;12.68;;
65971;SDS011;52726;48.852;9.152;2023-03-03T07:06:26;30.95;;;12.13;;
65971;SDS011;52726;48.852;9.152;2023-03-03T07:08:52;25.38;;;12.27;;
65971;SDS011;52726;48.852;9.152;2023-03-03T07:11:19;30.58;;;13.18;;
65971;SDS011;52726;48.852;9.152;2023-03-03T07:13:49;28.83;;;13.38;;
65971;SDS011;52726;48.852;9.152;2023-03-03T07:16:16;35.67;;;13.32;;
65971;SDS011;52726;48.852;9.152;2023-03-03T07:18:51;27.45;;;12.02;;
65971;SDS011;52726;48.852;9.152;2023-03-03T07:21:33;28.45;;;11.93;;
65971;SDS011;52726;48.852;9.152;2023-03-03T07:24:00;23.38;;;10.85;;
65971;SDS011;52726;48.852;9.152;2023-03-03T07:31:53;24.15;;;9.98;;
65971;SDS011;52726;48.852;9.152;2023-03-03T07:34:23;24.83;;;11.25;;
65971;SDS011;52726;48.852;9.152;2023-03-03T07:36:57;25.38;;;11.63;;
65971;SDS011;52726;48.852;9.152;2023-03-03T07:50:41;31.02;;;10.77;;
65971;SDS011;52726;48.852;9.152;2023-03-03T07:53:26;19.15;;;9.05;;
65971;SDS011;52726;48.852;9.152;2023-03-03T07:55:53;24.05;;;9.57;;
65971;SDS011;52726;48.852;9.152;2023-03-03T07:58:21;21.02;;;9.80;;
65971;SDS011;52726;48.852;9.152;2023-03-03T08:01:28;17.92;;;10.10;;
65971;SDS011;52726;48.852;9.152;2023-03-03T08:04:04;21.75;;;9.50;;
65971;SDS011;52726;48.852;9.152;2023-03-03T08:06:46;25.38;;;10.43;;
65971;SDS011;52726;48.852;9.152;2023-03-03T08:11:50;24.17;;;10.55;;
65971;SDS011;52726;48.852;9.152;2023-03-03T08:14:24;19.17;;;9.15;;
65971;SDS011;52726;48.852;9.152;2023-03-03T08:16:53;22.27;;;9.45;;
65971;SDS011;52726;48.852;9.152;2023-03-03T08:19:20;32.17;;;12.43;;
65971;SDS011;52726;48.852;9.152;2023-03-03T08:21:46;23.73;;;9.48;;
65971;SDS011;52726;48.852;9.152;2023-03-03T08:24:11;23.00;;;10.25;;
65971;SDS011;52726;48.852;9.152;2023-03-03T08:26:37;33.03;;;11.88;;
65971;SDS011;52726;48.852;9.152;2023-03-03T08:29:02;20.13;;;9.75;;
65971;SDS011;52726;48.852;9.152;2023-03-03T08:31:28;31.45;;;12.05;;
65971;SDS011;52726;48.852;9.152;2023-03-03T08:33:53;17.58;;;9.80;;
65971;SDS011;52726;48.852;9.152;2023-03-03T08:36:19;29.17;;;11.07;;
65971;SDS011;52726;48.852;9.152;2023-03-03T08:38:44;27.80;;;9.68;;
65971;SDS011;52726;48.852;9.152;2023-03-03T08:41:10;20.88;;;9.88;;
65971;SDS011;52726;48.852;9.152;2023-03-03T08:43:35;22.30;;;10.43;;
65971;SDS011;52726;48.852;9.152;2023-03-03T08:46:01;23.40;;;9.70;;
65971;SDS011;52726;48.852;9.152;2023-03-03T08:48:29;20.10;;;10.25;;
65971;SDS011;52726;48.852;9.152;2023-03-03T08:50:55;21.17;;;10.75;;
65971;SDS011;52726;48.852;9.152;2023-03-03T08:53:21;20.88;;;11.10;;
65971;SDS011;52726;48.852;9.152;2023-03-03T08:55:47;17.48;;;9.77;;
65971;SDS011;52726;48.852;9.152;2023-03-03T08:58:13;24.50;;;10.77;;
65971;SDS011;52726;48.852;9.152;2023-03-03T09:00:40;18.42;;;10.13;;
65971;SDS011;52726;48.852;9.152;2023-03-03T09:03:06;20.58;;;9.68;;
65971;SDS011;52726;48.852;9.152;2023-03-03T09:05:32;21.10;;;11.00;;
65971;SDS011;52726;48.852;9.152;2023-03-03T09:07:58;20.58;;;11.02;;
65971;SDS011;52726;48.852;9.152;2023-03-03T09:10:25;24.35;;;10.50;;
65971;SDS011;52726;48.852;9.152;2023-03-03T09:12:54;20.30;;;10.35;;
65971;SDS011;52726;48.852;9.152;2023-03-03T09:18:00;20.35;;;9.88;;
65971;SDS011;52726;48.852;9.152;2023-03-03T09:20:47;26.30;;;11.40;;
65971;SDS011;52726;48.852;9.152;2023-03-03T09:25:55;24.20;;;10.55;;
65971;SDS011;52726;48.852;9.152;2023-03-03T09:28:26;24.60;;;10.60;;
65971;SDS011;52726;48.852;9.152;2023-03-03T09:30:58;31.15;;;11.93;;
65971;SDS011;52726;48.852;9.152;2023-03-03T09:33:44;27.23;;;13.30;;
65971;SDS011;52726;48.852;9.152;2023-03-03T09:38:48;22.10;;;11.68;;
65971;SDS011;52726;48.852;9.152;2023-03-03T09:44:43;24.08;;;12.05;;
65971;SDS011;52726;48.852;9.152;2023-03-03T09:47:58;24.02;;;11.63;;
65971;SDS011;52726;48.852;9.152;2023-03-03T09:55:43;26.90;;;11.90;;
65971;SDS011;52726;48.852;9.152;2023-03-03T10:06:44;23.40;;;11.38;;
65971;SDS011;52726;48.852;9.152;2023-03-03T10:17:50;35.28;;;12.48;;
65971;SDS011;52726;48.852;9.152;2023-03-03T10:23:18;26.17;;;12.18;;
65971;SDS011;52726;48.852;9.152;2023-03-03T10:26:15;23.88;;;11.50;;
65971;SDS011;52726;48.852;9.152;2023-03-03T10:29:07;19.33;;;10.93;;
65971;SDS011;52726;48.852;9.152;2023-03-03T10:32:08;23.93;;;11.77;;
65971;SDS011;52726;48.852;9.152;2023-03-03T10:37:59;23.00;;;10.95;;
65971;SDS011;52726;48.852;9.152;2023-03-03T10:46:14;20.90;;;10.43;;
65971;SDS011;52726;48.852;9.152;2023-03-03T10:58:15;25.70;;;11.93;;
65971;SDS011;52726;48.852;9.152;2023-03-03T11:06:04;22.10;;;9.82;;
65971;SDS011;52726;48.852;9.152;2023-03-03T11:13:55;18.48;;;9.85;;
65971;SDS011;52726;48.852;9.152;2023-03-03T11:22:29;27.13;;;10.30;;
65971;SDS011;52726;48.852;9.152;2023-03-03T11:25:02;19.33;;;10.48;;
65971;SDS011;52726;48.852;9.152;2023-03-03T11:33:37;17.83;;;9.13;;
65971;SDS011;52726;48.852;9.152;2023-03-03T11:36:11;23.02;;;10.77;;
65971;SDS011;52726;48.852;9.152;2023-03-03T11:38:44;21.40;;;10.95;;
65971;SDS011;52726;48.852;9.152;2023-03-03T11:41:18;18.85;;;9.35;;
65971;SDS011;52726;48.852;9.152;2023-03-03T11:49:55;16.50;;;9.18;;
65971;SDS011;52726;48.852;9.152;2023-03-03T11:57:35;20.20;;;9.27;;
65971;SDS011;52726;48.852;9.152;2023-03-03T12:00:17;20.58;;;9.55;;
65971;SDS011;52726;48.852;9.152;2023-03-03T12:02:47;17.08;;;9.77;;
65971;SDS011;52726;48.852;9.152;2023-03-03T12:08:14;21.80;;;10.85;;
65971;SDS011;52726;48.852;9.152;2023-03-03T12:10:51;23.63;;;10.00;;
65971;SDS011;52726;48.852;9.152;2023-03-03T12:35:31;24.52;;;10.48;;
65971;SDS011;52726;48.852;9.152;2023-03-03T12:41:14;20.10;;;9.93;;
65971;SDS011;52726;48.852;9.152;2023-03-03T12:49:42;23.05;;;9.90;;
65971;SDS011;52726;48.852;9.152;2023-03-03T13:06:27;26.42;;;11.10;;
65971;SDS011;52726;48.852;9.152;2023-03-03T13:16:42;27.55;;;11.98;;
65971;SDS011;52726;48.852;9.152;2023-03-03T13:19:14;29.05;;;11.60;;
65971;SDS011;52726;48.852;9.152;2023-03-03T13:21:58;22.30;;;9.20;;
65971;SDS011;52726;48.852;9.152;2023-03-03T13:24:29;22.42;;;9.82;;
65971;SDS011;52726;48.852;9.152;2023-03-03T13:27:07;22.05;;;11.02;;
65971;SDS011;52726;48.852;9.152;2023-03-03T13:30:39;24.75;;;9.73;;
65971;SDS011;52726;48.852;9.152;2023-03-03T13:32:34;26.40;;;11.82;;
65971;SDS011;52726;48.852;9.152;2023-03-03T13:37:57;17.92;;;10.23;;
65971;SDS011;52726;48.852;9.152;2023-03-03T13:40:24;20.40;;;10.30;;
65971;SDS011;52726;48.852;9.152;2023-03-03T13:45:47;23.38;;;12.02;;
65971;SDS011;52726;48.852;9.152;2023-03-03T14:13:57;34.00;;;11.40;;
65971;SDS011;52726;48.852;9.152;2023-03-03T14:16:42;24.27;;;11.25;;
65971;SDS011;52726;48.852;9.152;2023-03-03T14:21:52;23.48;;;10.60;;
65971;SDS011;52726;48.852;9.152;2023-03-03T14:24:23;20.02;;;10.75;;
65971;SDS011;52726;48.852;9.152;2023-03-03T14:32:02;26.17;;;11.68;;
65971;SDS011;52726;48.852;9.152;2023-03-03T14:34:47;23.63;;;10.70;;
65971;SDS011;52726;48.852;9.152;2023-03-03T14:40:10;19.98;;;10.65;;
65971;SDS011;52726;48.852;9.152;2023-03-03T14:48:09;21.40;;;10.75;;
65971;SDS011;52726;48.852;9.152;2023-03-03T14:50:36;27.48;;;11.75;;
65971;SDS011;52726;48.852;9.152;2023-03-03T14:53:49;34.40;;;13.18;;
65971;SDS011;52726;48.852;9.152;2023-03-03T14:56:13;23.20;;;11.63;;
65971;SDS011;52726;48.852;9.152;2023-03-03T14:58:39;23.02;;;11.23;;
65971;SDS011;52726;48.852;9.152;2023-03-03T15:01:11;25.35;;;11.65;;
65971;SDS011;52726;48.852;9.152;2023-03-03T15:03:37;29.98;;;12.90;;
65971;SDS011;52726;48.852;9.152;2023-03-03T15:06:10;25.58;;;12.05;;
65971;SDS011;52726;48.852;9.152;2023-03-03T15:08:39;23.67;;;12.23;;
65971;SDS011;52726;48.852;9.152;2023-03-03T15:11:17;29.00;;;12.75;;
65971;SDS011;52726;48.852;9.152;2023-03-03T15:13:49;18.48;;;10.20;;
65971;SDS011;52726;48.852;9.152;2023-03-03T15:22:03;25.70;;;12.68;;
65971;SDS011;52726;48.852;9.152;2023-03-03T15:27:13;20.17;;;10.65;;
65971;SDS011;52726;48.852;9.152;2023-03-03T15:30:03;27.33;;;11.52;;
65971;SDS011;52726;48.852;9.152;2023-03-03T15:33:23;23.25;;;11.95;;
65971;SDS011;52726;48.852;9.152;2023-03-03T15:36:22;20.15;;;10.02;;
65971;SDS011;52726;48.852;9.152;2023-03-03T15:39:22;23.60;;;11.75;;
65971;SDS011;52726;48.852;9.152;2023-03-03T15:42:04;20.08;;;10.75;;
65971;SDS011;52726;48.852;9.152;2023-03-03T15:44:52;22.75;;;11.70;;
65971;SDS011;52726;48.852;9.152;2023-03-03T15:47:24;24.98;;;11.43;;
65971;SDS011;52726;48.852;9.152;2023-03-03T15:53:25;17.88;;;8.50;;
65971;SDS011;52726;48.852;9.152;2023-03-03T15:58:44;24.67;;;11.30;;
65971;SDS011;52726;48.852;9.152;2023-03-03T16:01:34;28.42;;;13.13;;
65971;SDS011;52726;48.852;9.152;2023-03-03T16:04:04;26.58;;;10.95;;
65971;SDS011;52726;48.852;9.152;2023-03-03T16:09:37;22.58;;;11.27;;
65971;SDS011;52726;48.852;9.152;2023-03-03T16:20:35;26.10;;;11.98;;
65971;SDS011;52726;48.852;9.152;2023-03-03T16:28:50;23.65;;;12.07;;
65971;SDS011;52726;48.852;9.152;2023-03-03T16:32:08;25.02;;;12.55;;
65971;SDS011;52726;48.852;9.152;2023-03-03T16:34:24;25.10;;;11.48;;
65971;SDS011;52726;48.852;9.152;2023-03-03T16:39:55;25.67;;;10.85;;
65971;SDS011;52726;48.852;9.152;2023-03-03T16:45:20;31.35;;;11.23;;
65971;SDS011;52726;48.852;9.152;2023-03-03T16:50:36;25.60;;;9.80;;
65971;SDS011;52726;48.852;9.152;2023-03-03T16:55:49;23.67;;;11.32;;
65971;SDS011;52726;48.852;9.152;2023-03-03T17:01:20;32.55;;;11.80;;
65971;SDS011;52726;48.852;9.152;2023-03-03T17:03:59;25.83;;;11.05;;
65971;SDS011;52726;48.852;9.152;2023-03-03T17:06:28;24.85;;;11.55;;
65971;SDS011;52726;48.852;9.152;2023-03-03T17:18:13;28.08;;;12.32;;
65971;SDS011;52726;48.852;9.152;2023-03-03T17:20:50;24.50;;;11.25;;
65971;SDS011;52726;48.852;9.152;2023-03-03T17:34:18;25.90;;;12.68;;
65971;SDS011;52726;48.852;9.152;2023-03-03T17:36:48;28.10;;;12.40;;
65971;SDS011;52726;48.852;9.152;2023-03-03T18:01:29;26.30;;;11.45;;
65971;SDS011;52726;48.852;9.152;2023-03-03T18:12:21;23.95;;;11.68;;
65971;SDS011;52726;48.852;9.152;2023-03-03T18:26:48;29.15;;;11.32;;
65971;SDS011;52726;48.852;9.152;2023-03-03T18:39:40;19.85;;;9.43;;
65971;SDS011;52726;48.852;9.152;2023-03-03T18:44:40;28.67;;;12.73;;
65971;SDS011;52726;48.852;9.152;2023-03-03T18:47:07;31.85;;;13.40;;
65971;SDS011;52726;48.852;9.152;2023-03-03T18:49:52;23.48;;;11.10;;
65971;SDS011;52726;48.852;9.152;2023-03-03T18:52:22;20.30;;;11.73;;
65971;SDS011;52726;48.852;9.152;2023-03-03T18:57:34;25.77;;;11.63;;
65971;SDS011;52726;48.852;9.152;2023-03-03T19:02:50;30.02;;;12.90;;
65971;SDS011;52726;48.852;9.152;2023-03-03T19:05:22;28.17;;;12.52;;
65971;SDS011;52726;48.852;9.152;2023-03-03T19:08:02;27.15;;;12.05;;
65971;SDS011;52726;48.852;9.152;2023-03-03T19:10:58;26.90;;;12.23;;
65971;SDS011;52726;48.852;9.152;2023-03-03T19:16:03;41.60;;;17.52;;
65971;SDS011;52726;48.852;9.152;2023-03-03T19:18:32;28.98;;;16.70;;
65971;SDS011;52726;48.852;9.152;2023-03-03T19:21:03;29.10;;;14.57;;
65971;SDS011;52726;48.852;9.152;2023-03-03T19:46:27;27.08;;;11.55;;
65971;SDS011;52726;48.852;9.152;2023-03-03T19:54:20;36.35;;;11.80;;
65971;SDS011;52726;48.852;9.152;2023-03-03T19:56:54;18.52;;;11.02;;
65971;SDS011;52726;48.852;9.152;2023-03-03T20:07:43;25.95;;;11.02;;
65971;SDS011;52726;48.852;9.152;2023-03-03T20:10:27;27.48;;;11.07;;
65971;SDS011;52726;48.852;9.152;2023-03-03T20:18:36;24.92;;;11.48;;
65971;SDS011;52726;48.852;9.152;2023-03-03T20:26:47;21.92;;;10.65;;
65971;SDS011;52726;48.852;9.152;2023-03-03T20:29:39;24.42;;;10.77;;
65971;SDS011;52726;48.852;9.152;2023-03-03T20:37:35;26.85;;;11.95;;
65971;SDS011;52726;48.852;9.152;2023-03-03T20:40:26;23.35;;;10.70;;
65971;SDS011;52726;48.852;9.152;2023-03-03T20:45:52;37.13;;;11.95;;
65971;SDS011;52726;48.852;9.152;2023-03-03T20:51:33;24.95;;;11.48;;
65971;SDS011;52726;48.852;9.152;2023-03-03T20:54:29;22.83;;;10.40;;
65971;SDS011;52726;48.852;9.152;2023-03-03T20:57:21;24.33;;;10.35;;
65971;SDS011;52726;48.852;9.152;2023-03-03T21:02:44;16.50;;;9.35;;
65971;SDS011;52726;48.852;9.152;2023-03-03T21:05:16;24.58;;;11.88;;
65971;SDS011;52726;48.852;9.152;2023-03-03T21:08:04;23.70;;;10.50;;
65971;SDS011;52726;48.852;9.152;2023-03-03T21:10:33;26.17;;;11.32;;
65971;SDS011;52726;48.852;9.152;2023-03-03T21:15:56;18.10;;;9.52;;
65971;SDS011;52726;48.852;9.152;2023-03-03T21:18:26;29.52;;;10.38;;
65971;SDS011;52726;48.852;9.152;2023-03-03T21:20:51;21.77;;;11.27;;
65971;SDS011;52726;48.852;9.152;2023-03-03T21:23:17;19.55;;;9.73;;
65971;SDS011;52726;48.852;9.152;2023-03-03T21:25:49;20.27;;;10.73;;
65971;SDS011;52726;48.852;9.152;2023-03-03T21:36:18;19.08;;;8.73;;
65971;SDS011;52726;48.852;9.152;2023-03-03T21:38:47;24.30;;;9.98;;
65971;SDS011;52726;48.852;9.152;2023-03-03T21:41:14;27.05;;;10.93;;
65971;SDS011;52726;48.852;9.152;2023-03-03T21:43:45;22.42;;;8.48;;
65971;SDS011;52726;48.852;9.152;2023-03-03T21:46:12;22.23;;;9.07;;
65971;SDS011;52726;48.852;9.152;2023-03-03T21:48:42;23.30;;;9.70;;
65971;SDS011;52726;48.852;9.152;2023-03-03T21:51:08;22.00;;;9.73;;
65971;SDS011;52726;48.852;9.152;2023-03-03T21:53:35;24.70;;;10.75;;
65971;SDS011;52726;48.852;9.152;2023-03-03T21:56:01;25.25;;;10.32;;
65971;SDS011;52726;48.852;9.152;2023-03-03T21:58:26;21.38;;;9.40;;
65971;SDS011;52726;48.852;9.152;2023-03-03T22:00:51;14.77;;;7.45;;
65971;SDS011;52726;48.852;9.152;2023-03-03T22:03:17;25.58;;;11.35;;
65971;SDS011;52726;48.852;9.152;2023-03-03T22:05:45;21.73;;;10.27;;
65971;SDS011;52726;48.852;9.152;2023-03-03T22:08:13;20.98;;;9.98;;
65971;SDS011;52726;48.852;9.152;2023-03-03T22:10:39;30.33;;;11.13;;
65971;SDS011;52726;48.852;9.152;2023-03-03T22:13:04;23.65;;;10.50;;
65971;SDS011;52726;48.852;9.152;2023-03-03T22:15:30;27.38;;;11.35;;
65971;SDS011;52726;48.852;9.152;2023-03-03T22:17:58;28.55;;;9.57;;
65971;SDS011;52726;48.852;9.152;2023-03-03T22:20:24;22.80;;;10.23;;
65971;SDS011;52726;48.852;9.152;2023-03-03T22:22:49;18.17;;;9.02;;
65971;SDS011;52726;48.852;9.152;2023-03-03T22:25:14;21.48;;;9.20;;